Time;durP1;ratioP1;P1;durP2;ratioP2;P2;SDS_P1;SDS_P2;PMS_P1;PMS_P2;Temp;Humidity;BMP_temperature;BMP_pressure;BME280_temperature;BME280_humidity;BME280_pressure;Samples;Min_cycle;Max_cycle;Signal;HPM_P1;HPM_P2
2022/03/26 00:00:33;;;;;;;32.72;18.63;;;10.90;99.90;;;;;;5079125;28;20028;-60
2022/03/26 00:03:13;;;;;;;29.60;18.35;;;10.90;99.90;;;;;;5078815;28;20458;-60
2022/03/26 00:05:39;;;;;;;35.33;19.50;;;10.90;99.90;;;;;;5077917;28;20348;-60
2022/03/26 00:08:05;;;;;;;30.67;18.50;;;10.90;99.90;;;;;;5078714;28;20104;-60
2022/03/26 00:10:31;;;;;;;35.45;18.90;;;10.80;99.90;;;;;;5078698;28;20036;-60
2022/03/26 00:12:57;;;;;;;33.42;18.27;;;10.70;99.90;;;;;;5078712;28;20081;-61
2022/03/26 00:15:24;;;;;;;33.45;18.45;;;10.80;99.90;;;;;;5061522;28;20036;-61
2022/03/26 00:17:50;;;;;;;35.45;19.63;;;10.70;99.90;;;;;;5077811;28;20364;-61
2022/03/26 00:20:17;;;;;;;31.88;18.77;;;10.70;99.90;;;;;;5077757;28;20059;-61
2022/03/26 00:22:55;;;;;;;32.40;18.67;;;10.70;99.90;;;;;;5078889;28;20036;-61
2022/03/26 00:25:27;;;;;;;35.72;18.33;;;10.70;99.90;;;;;;5078550;28;20043;-61
2022/03/26 00:27:53;;;;;;;38.50;20.15;;;10.70;99.90;;;;;;5061491;28;20032;-60
2022/03/26 00:30:19;;;;;;;31.73;18.33;;;10.60;99.90;;;;;;5077526;28;20044;-62
2022/03/26 00:32:45;;;;;;;34.90;19.48;;;10.60;99.90;;;;;;5078278;28;20040;-60
2022/03/26 00:35:11;;;;;;;34.70;19.08;;;10.60;99.90;;;;;;5077675;28;20277;-61
2022/03/26 00:37:38;;;;;;;37.15;18.98;;;10.50;99.90;;;;;;5078123;28;20021;-61
2022/03/26 00:40:06;;;;;;;34.30;19.13;;;10.60;99.90;;;;;;5077935;28;20052;-61
2022/03/26 00:42:32;;;;;;;32.05;18.42;;;10.50;99.90;;;;;;5078152;28;20396;-61
2022/03/26 00:44:57;;;;;;;30.95;17.85;;;10.40;99.90;;;;;;5078128;28;20103;-62
2022/03/26 00:47:23;;;;;;;33.05;19.25;;;10.40;99.90;;;;;;5076736;28;20315;-62
2022/03/26 00:49:49;;;;;;;32.20;18.23;;;10.50;99.90;;;;;;5077951;28;20353;-61
2022/03/26 00:52:15;;;;;;;33.55;19.08;;;10.50;99.90;;;;;;5076912;28;20423;-61
2022/03/26 00:54:41;;;;;;;32.90;18.00;;;10.50;99.90;;;;;;5077939;28;20017;-61
2022/03/26 00:57:06;;;;;;;33.10;18.90;;;10.40;99.90;;;;;;5077762;28;20376;-61
2022/03/26 00:59:32;;;;;;;32.10;18.35;;;10.30;99.90;;;;;;5077741;28;20116;-61
2022/03/26 01:01:58;;;;;;;32.15;18.77;;;10.30;99.90;;;;;;5077876;28;20032;-61
2022/03/26 01:04:24;;;;;;;32.40;19.33;;;10.20;99.90;;;;;;5076999;28;20040;-61
2022/03/26 01:06:50;;;;;;;35.13;19.80;;;10.10;99.90;;;;;;5077667;28;20296;-61
2022/03/26 01:09:15;;;;;;;30.42;17.95;;;10.00;99.90;;;;;;5077494;28;20122;-61
2022/03/26 01:11:41;;;;;;;30.40;18.15;;;9.90;99.90;;;;;;5077434;28;20407;-61
2022/03/26 01:14:07;;;;;;;33.97;19.52;;;9.80;99.90;;;;;;5076699;28;20173;-61
2022/03/26 01:16:33;;;;;;;31.52;18.90;;;9.80;99.90;;;;;;5077495;28;20113;-62
2022/03/26 01:18:59;;;;;;;33.22;18.55;;;9.70;99.90;;;;;;5077490;28;20028;-61
2022/03/26 01:21:25;;;;;;;31.95;19.25;;;9.70;99.90;;;;;;5077622;28;20050;-61
2022/03/26 01:23:51;;;;;;;33.22;17.80;;;9.60;99.90;;;;;;5076527;28;20036;-61
2022/03/26 01:26:18;;;;;;;33.97;19.63;;;9.60;99.90;;;;;;5076384;28;20391;-61
2022/03/26 01:28:44;;;;;;;30.70;18.35;;;9.50;99.90;;;;;;5076570;28;20115;-62
2022/03/26 01:31:11;;;;;;;35.10;19.35;;;9.60;99.90;;;;;;5077204;28;20033;-61
2022/03/26 01:33:37;;;;;;;30.83;18.77;;;9.60;99.90;;;;;;5077112;28;20028;-61
2022/03/26 01:36:04;;;;;;;34.35;18.67;;;9.60;99.90;;;;;;5076304;28;20354;-61
2022/03/26 01:38:30;;;;;;;33.20;19.33;;;9.60;99.90;;;;;;5077019;28;20037;-61
2022/03/26 01:40:56;;;;;;;34.58;18.75;;;9.50;99.90;;;;;;5076751;28;20055;-60
2022/03/26 01:43:22;;;;;;;32.75;18.92;;;9.40;99.90;;;;;;5076315;28;20037;-61
2022/03/26 01:45:47;;;;;;;32.53;19.88;;;9.30;99.90;;;;;;5077475;28;20036;-60
2022/03/26 01:48:13;;;;;;;33.80;19.50;;;9.30;99.90;;;;;;5076902;28;20444;-61
2022/03/26 01:50:40;;;;;;;35.00;19.35;;;9.30;99.90;;;;;;5077287;28;20032;-61
2022/03/26 01:53:06;;;;;;;36.00;19.05;;;9.30;99.90;;;;;;5076988;28;20108;-61
2022/03/26 01:55:32;;;;;;;33.17;18.50;;;9.30;99.90;;;;;;5076809;28;20029;-61
2022/03/26 01:57:59;;;;;;;33.20;19.73;;;9.20;99.90;;;;;;5076732;28;20101;-61
2022/03/26 02:00:25;;;;;;;36.38;19.42;;;9.20;99.90;;;;;;5076537;28;20355;-61
2022/03/26 02:02:51;;;;;;;35.50;19.65;;;9.10;99.90;;;;;;5076710;28;20040;-61
2022/03/26 02:05:18;;;;;;;33.80;19.17;;;9.10;99.90;;;;;;5075853;28;20037;-60
2022/03/26 02:07:46;;;;;;;34.78;20.35;;;9.10;99.90;;;;;;5076564;28;20098;-61
2022/03/26 02:10:14;;;;;;;36.30;19.30;;;9.10;99.90;;;;;;5076666;28;20090;-61
2022/03/26 02:12:41;;;;;;;31.67;19.17;;;9.00;99.90;;;;;;5076477;28;20108;-61
2022/03/26 02:15:07;;;;;;;39.60;19.65;;;9.00;99.90;;;;;;5076681;28;20033;-61
2022/03/26 02:17:35;;;;;;;35.83;20.23;;;9.00;99.90;;;;;;5076623;28;20032;-61
2022/03/26 02:20:04;;;;;;;36.08;20.45;;;9.00;99.90;;;;;;5076606;28;20035;-61
2022/03/26 02:22:30;;;;;;;35.22;20.30;;;9.00;99.90;;;;;;5076659;28;20305;-61
2022/03/26 02:24:56;;;;;;;32.33;18.92;;;8.90;99.90;;;;;;5076519;28;20067;-61
2022/03/26 02:27:24;;;;;;;37.08;19.65;;;8.90;99.90;;;;;;5076604;28;20112;-61
2022/03/26 02:29:51;;;;;;;30.60;18.65;;;8.90;99.90;;;;;;5075602;28;20028;-61
2022/03/26 02:32:21;;;;;;;35.38;20.00;;;8.90;99.90;;;;;;5076659;28;20407;-61
2022/03/26 02:34:48;;;;;;;34.55;19.98;;;8.90;99.90;;;;;;5075785;28;20039;-61
2022/03/26 02:37:13;;;;;;;36.00;19.30;;;8.80;99.90;;;;;;5076313;28;20028;-60
2022/03/26 02:39:39;;;;;;;34.80;19.77;;;8.90;99.90;;;;;;5075444;28;20316;-60
2022/03/26 02:42:05;;;;;;;32.70;19.08;;;8.90;99.90;;;;;;5076578;28;20112;-60
2022/03/26 02:44:31;;;;;;;32.22;19.80;;;8.80;99.90;;;;;;5075666;28;20040;-60
2022/03/26 02:46:57;;;;;;;34.33;19.33;;;8.80;99.90;;;;;;5076369;28;20090;-60
2022/03/26 02:49:23;;;;;;;36.03;20.25;;;8.70;99.90;;;;;;5075551;28;20036;-61
2022/03/26 02:51:48;;;;;;;34.40;19.90;;;8.80;99.90;;;;;;5076455;28;20328;-61
2022/03/26 02:54:20;;;;;;;34.95;18.73;;;8.80;99.90;;;;;;5076283;28;20447;-61
2022/03/26 02:56:48;;;;;;;38.58;20.08;;;8.80;99.90;;;;;;5076538;28;20033;-61
2022/03/26 02:59:14;;;;;;;39.00;20.05;;;8.80;99.90;;;;;;5076097;28;20047;-61
2022/03/26 03:01:40;;;;;;;35.10;20.20;;;8.70;99.90;;;;;;5075986;28;20211;-62
2022/03/26 03:04:06;;;;;;;31.00;19.77;;;8.70;99.90;;;;;;5058642;28;20448;-60
2022/03/26 03:06:32;;;;;;;34.92;18.80;;;8.60;99.90;;;;;;5076446;28;20094;-61
2022/03/26 03:08:57;;;;;;;33.50;19.80;;;8.60;99.90;;;;;;5076058;28;20094;-61
2022/03/26 03:11:24;;;;;;;34.30;19.92;;;8.60;99.90;;;;;;5077743;28;20342;-60
2022/03/26 03:13:50;;;;;;;35.00;20.33;;;8.60;99.90;;;;;;5079780;28;20288;-61
2022/03/26 03:16:16;;;;;;;35.72;19.90;;;8.60;99.90;;;;;;5062403;28;20086;-61
2022/03/26 03:18:41;;;;;;;34.13;20.40;;;8.60;99.90;;;;;;5078911;28;20028;-61
2022/03/26 03:21:08;;;;;;;39.88;19.92;;;8.60;99.90;;;;;;5079642;28;20032;-61
2022/03/26 03:23:34;;;;;;;35.65;19.95;;;8.70;99.90;;;;;;5062194;28;20024;-61
2022/03/26 03:25:59;;;;;;;35.47;19.83;;;8.60;99.90;;;;;;5079405;28;20043;-61
2022/03/26 03:28:26;;;;;;;39.35;20.73;;;8.60;99.90;;;;;;5079450;28;20097;-61
2022/03/26 03:30:52;;;;;;;34.67;20.25;;;8.60;99.90;;;;;;5078780;28;20116;-62
2022/03/26 03:33:18;;;;;;;35.42;20.08;;;8.50;99.90;;;;;;5078542;28;20151;-61
2022/03/26 03:35:44;;;;;;;35.13;19.38;;;8.60;99.90;;;;;;5079322;28;20078;-61
2022/03/26 03:38:10;;;;;;;38.42;20.75;;;8.50;99.90;;;;;;5079335;28;20032;-61
2022/03/26 03:40:36;;;;;;;38.42;20.42;;;8.60;99.90;;;;;;5079146;28;20398;-61
2022/03/26 03:43:01;;;;;;;36.65;19.83;;;8.50;99.90;;;;;;5079280;28;20032;-61
2022/03/26 03:45:28;;;;;;;35.22;19.25;;;8.50;99.90;;;;;;5061849;28;20128;-61
2022/03/26 03:47:54;;;;;;;37.67;20.10;;;8.40;99.90;;;;;;5079129;28;20064;-61
2022/03/26 03:50:21;;;;;;;37.95;19.85;;;8.40;99.90;;;;;;5079096;28;20102;-61
2022/03/26 03:52:47;;;;;;;35.17;19.92;;;8.40;99.90;;;;;;5078278;28;20052;-61
2022/03/26 03:55:13;;;;;;;34.20;19.77;;;8.30;99.90;;;;;;5079025;28;20040;-61
2022/03/26 03:57:42;;;;;;;39.40;20.17;;;8.20;99.90;;;;;;5044983;28;20039;-61
2022/03/26 04:00:13;;;;;;;37.65;20.98;;;8.20;99.90;;;;;;5079295;28;20043;-62
2022/03/26 04:02:39;;;;;;;37.22;20.73;;;8.20;99.90;;;;;;5078564;28;20057;-62
2022/03/26 04:05:09;;;;;;;36.33;21.15;;;8.20;99.90;;;;;;5078864;28;20029;-61
2022/03/26 04:07:36;;;;;;;37.80;20.75;;;8.10;99.90;;;;;;5061963;28;20411;-60
2022/03/26 04:10:04;;;;;;;36.17;20.63;;;8.10;99.90;;;;;;5078000;28;20346;-61
2022/03/26 04:12:30;;;;;;;34.92;20.63;;;8.10;99.90;;;;;;5077720;28;20356;-61
2022/03/26 04:14:56;;;;;;;39.42;20.48;;;8.00;99.90;;;;;;5078708;28;20020;-61
2022/03/26 04:17:22;;;;;;;35.60;19.80;;;8.00;99.90;;;;;;5077788;28;20032;-61
2022/03/26 04:19:48;;;;;;;38.22;21.38;;;8.00;99.90;;;;;;5061259;28;20028;-60
2022/03/26 04:22:14;;;;;;;36.25;21.15;;;8.00;99.90;;;;;;5077788;28;20032;-61
2022/03/26 04:24:40;;;;;;;38.00;20.48;;;8.00;99.90;;;;;;5078968;28;20308;-61
2022/03/26 04:27:06;;;;;;;38.80;19.88;;;8.00;99.90;;;;;;5061050;28;20092;-61
2022/03/26 04:29:32;;;;;;;36.17;20.63;;;8.00;99.90;;;;;;5077847;28;20044;-61
2022/03/26 04:31:59;;;;;;;41.17;21.63;;;7.90;99.90;;;;;;5078191;28;20040;-61
2022/03/26 04:34:25;;;;;;;38.40;20.73;;;7.90;99.90;;;;;;5078378;28;20028;-61
2022/03/26 04:36:51;;;;;;;37.75;20.52;;;7.90;99.90;;;;;;5077493;28;20025;-61
2022/03/26 04:39:17;;;;;;;39.67;20.60;;;7.90;99.90;;;;;;5078026;28;20127;-61
2022/03/26 04:41:43;;;;;;;38.17;21.13;;;7.90;99.90;;;;;;5078456;28;20033;-60
2022/03/26 04:44:08;;;;;;;41.00;21.25;;;7.90;99.90;;;;;;5078172;28;20396;-61
2022/03/26 04:46:34;;;;;;;37.92;20.98;;;7.80;99.90;;;;;;5078010;28;20083;-61
2022/03/26 04:49:00;;;;;;;39.40;20.83;;;7.80;99.90;;;;;;5077993;28;20293;-61
2022/03/26 04:51:26;;;;;;;43.58;20.20;;;7.80;99.90;;;;;;5044016;28;20311;-60
2022/03/26 04:53:52;;;;;;;38.25;20.10;;;7.80;99.90;;;;;;5077921;28;20400;-61
2022/03/26 04:56:18;;;;;;;41.28;20.35;;;7.70;99.90;;;;;;5077795;28;20106;-61
2022/03/26 04:58:44;;;;;;;39.70;21.10;;;7.70;99.90;;;;;;5077169;28;20037;-61
2022/03/26 05:01:10;;;;;;;34.00;20.58;;;7.70;99.90;;;;;;5077662;28;20094;-60
2022/03/26 05:03:36;;;;;;;36.95;21.13;;;7.70;99.90;;;;;;5076927;28;20035;-62
2022/03/26 05:06:02;;;;;;;39.38;20.52;;;7.60;99.90;;;;;;5077002;28;20032;-61
2022/03/26 05:08:28;;;;;;;37.50;20.38;;;7.60;99.90;;;;;;5077506;28;20067;-61
2022/03/26 05:10:54;;;;;;;36.38;20.80;;;7.60;99.90;;;;;;5060149;28;20423;-61
2022/03/26 05:13:20;;;;;;;40.13;22.15;;;7.50;99.90;;;;;;5060173;28;20082;-61
2022/03/26 05:15:46;;;;;;;33.95;20.23;;;7.50;99.90;;;;;;5076803;28;20118;-60
2022/03/26 05:18:13;;;;;;;42.78;21.40;;;7.60;99.90;;;;;;5077365;28;20071;-61
2022/03/26 05:20:39;;;;;;;37.80;21.05;;;7.50;99.90;;;;;;5043564;28;20036;-61
2022/03/26 05:23:05;;;;;;;37.75;21.70;;;7.50;99.90;;;;;;5077270;28;20048;-61
2022/03/26 05:25:31;;;;;;;41.88;22.75;;;7.40;99.90;;;;;;5078178;28;20388;-61
2022/03/26 05:27:58;;;;;;;37.92;20.67;;;7.50;99.90;;;;;;5059853;28;20051;-61
2022/03/26 05:30:24;;;;;;;37.22;21.58;;;7.60;99.90;;;;;;5077896;28;20036;-61
2022/03/26 05:32:50;;;;;;;41.97;21.73;;;7.60;99.90;;;;;;5076222;28;20377;-61
2022/03/26 05:35:16;;;;;;;37.25;21.02;;;7.60;99.90;;;;;;5076499;28;20323;-61
2022/03/26 05:37:47;;;;;;;45.80;22.75;;;7.60;99.90;;;;;;5077148;28;20074;-61
2022/03/26 05:40:16;;;;;;;45.78;22.00;;;7.60;99.90;;;;;;5076190;28;20044;-61
2022/03/26 05:42:43;;;;;;;39.05;21.48;;;7.60;99.90;;;;;;5077047;28;20079;-61
2022/03/26 05:45:09;;;;;;;38.95;21.23;;;7.70;99.90;;;;;;5076394;28;20312;-61
2022/03/26 05:47:37;;;;;;;41.97;22.02;;;7.60;99.90;;;;;;5076967;28;20111;-61
2022/03/26 05:50:06;;;;;;;40.75;22.42;;;7.50;99.90;;;;;;5076967;28;20032;-61
2022/03/26 05:52:32;;;;;;;37.15;21.10;;;7.50;99.90;;;;;;5076733;28;20269;-61
2022/03/26 05:54:57;;;;;;;38.67;20.95;;;7.50;99.90;;;;;;5059170;28;20035;-61
2022/03/26 05:57:23;;;;;;;44.67;22.23;;;7.60;99.90;;;;;;5076658;28;20107;-62
2022/03/26 05:59:49;;;;;;;37.58;20.73;;;7.50;99.90;;;;;;5076770;28;20040;-62
2022/03/26 06:02:15;;;;;;;38.75;20.77;;;7.60;99.90;;;;;;5076732;28;20021;-62
2022/03/26 06:04:42;;;;;;;39.88;21.67;;;7.60;99.90;;;;;;5075981;28;20035;-60
2022/03/26 06:07:08;;;;;;;37.95;21.42;;;7.70;99.90;;;;;;5076670;28;20032;-62
2022/03/26 06:09:36;;;;;;;47.22;22.52;;;7.80;99.90;;;;;;5075829;28;20016;-62
2022/03/26 06:12:02;;;;;;;38.78;22.00;;;7.80;99.90;;;;;;5076571;28;20033;-62
2022/03/26 06:14:28;;;;;;;46.40;22.50;;;7.70;99.90;;;;;;5075734;28;20025;-62
2022/03/26 06:16:55;;;;;;;40.78;22.55;;;7.80;99.90;;;;;;5076123;28;20048;-62
2022/03/26 06:19:21;;;;;;;47.05;23.55;;;7.80;99.90;;;;;;5075897;28;20021;-62
2022/03/26 06:21:47;;;;;;;38.95;22.23;;;7.80;99.90;;;;;;5076612;28;20303;-62
2022/03/26 06:24:13;;;;;;;39.17;21.85;;;7.90;99.90;;;;;;5076659;28;20032;-61
2022/03/26 06:26:39;;;;;;;40.22;22.60;;;8.00;99.90;;;;;;5076148;28;20066;-61
2022/03/26 06:29:05;;;;;;;35.15;21.38;;;8.20;99.90;;;;;;5076477;28;20074;-61
2022/03/26 06:31:31;;;;;;;41.55;22.55;;;8.20;99.90;;;;;;5076517;28;20400;-61
2022/03/26 06:33:58;;;;;;;42.08;21.92;;;8.20;99.90;;;;;;5076415;28;20052;-63
2022/03/26 06:36:26;;;;;;;41.03;21.48;;;8.20;99.90;;;;;;5076552;28;20052;-63
2022/03/26 06:38:52;;;;;;;40.05;20.88;;;8.30;99.90;;;;;;5075698;28;20075;-63
2022/03/26 06:41:18;;;;;;;46.15;23.27;;;8.40;99.90;;;;;;5076566;28;20055;-63
2022/03/26 06:43:44;;;;;;;43.17;21.67;;;8.50;99.90;;;;;;5058941;28;20028;-63
2022/03/26 06:46:13;;;;;;;41.58;22.23;;;8.50;99.90;;;;;;5078648;28;20066;-62
2022/03/26 06:48:39;;;;;;;39.70;20.35;;;8.60;99.90;;;;;;5079673;28;20048;-62
2022/03/26 06:51:08;;;;;;;43.38;23.02;;;8.60;99.90;;;;;;5080265;28;20043;-63
2022/03/26 06:53:34;;;;;;;45.03;22.90;;;8.70;99.90;;;;;;5079465;28;20032;-63
2022/03/26 06:56:01;;;;;;;41.15;22.58;;;8.80;99.90;;;;;;5080267;28;20103;-62
2022/03/26 06:58:28;;;;;;;41.60;22.85;;;8.90;99.90;;;;;;5080107;28;20028;-63
2022/03/26 07:00:54;;;;;;;37.53;21.67;;;8.90;99.90;;;;;;5079292;28;20032;-63
2022/03/26 07:03:20;;;;;;;41.03;22.27;;;9.10;99.90;;;;;;5079899;28;20392;-63
2022/03/26 07:05:46;;;;;;;47.20;22.52;;;9.20;99.90;;;;;;5079875;28;20044;-64
2022/03/26 07:08:12;;;;;;;40.42;20.50;;;9.20;99.90;;;;;;5079431;28;20135;-64
2022/03/26 07:10:44;;;;;;;39.00;22.27;;;9.30;99.90;;;;;;5080174;28;20108;-64
2022/03/26 07:13:11;;;;;;;41.22;22.88;;;9.30;99.90;;;;;;5047721;28;20044;-63
2022/03/26 07:15:37;;;;;;;39.55;21.33;;;9.50;99.90;;;;;;5079887;28;20033;-64
2022/03/26 07:18:03;;;;;;;36.58;21.27;;;9.50;99.90;;;;;;5079566;28;20043;-64
2022/03/26 07:20:29;;;;;;;32.83;20.27;;;9.70;99.90;;;;;;5079779;28;20039;-64
2022/03/26 07:22:55;;;;;;;34.67;20.98;;;9.70;99.90;;;;;;5078814;28;20505;-64
2022/03/26 07:25:21;;;;;;;37.60;20.27;;;9.90;99.90;;;;;;5079641;28;20032;-63
2022/03/26 07:27:46;;;;;;;36.90;21.10;;;10.10;99.90;;;;;;5079506;28;20041;-62
2022/03/26 07:30:12;;;;;;;38.33;21.20;;;10.00;99.90;;;;;;5079677;28;20071;-63
2022/03/26 07:32:38;;;;;;;40.70;21.70;;;10.00;99.90;;;;;;5079554;28;20028;-64
2022/03/26 07:35:05;;;;;;;40.08;21.48;;;10.00;99.90;;;;;;5079381;28;20070;-64
2022/03/26 07:37:31;;;;;;;38.58;21.65;;;10.10;99.90;;;;;;5079336;28;20177;-64
2022/03/26 07:39:56;;;;;;;35.40;20.75;;;10.10;99.90;;;;;;5078400;28;20127;-64
2022/03/26 07:42:22;;;;;;;36.30;20.48;;;10.20;99.90;;;;;;5078638;28;20125;-64
2022/03/26 07:44:48;;;;;;;39.63;21.13;;;10.30;99.90;;;;;;5079294;28;20389;-64
2022/03/26 07:47:14;;;;;;;37.78;21.25;;;10.40;99.90;;;;;;5079138;28;20036;-64
2022/03/26 07:49:40;;;;;;;38.33;20.33;;;10.60;99.90;;;;;;5079362;28;20064;-64
2022/03/26 07:52:06;;;;;;;39.33;21.30;;;10.70;99.90;;;;;;5079066;28;20078;-64
2022/03/26 07:54:32;;;;;;;38.47;21.17;;;10.90;99.90;;;;;;5061764;28;20455;-63
2022/03/26 07:56:57;;;;;;;40.10;21.75;;;11.00;99.90;;;;;;5076827;28;20163;-64
2022/03/26 07:59:23;;;;;;;39.35;22.33;;;11.00;99.90;;;;;;5061718;28;20032;-64
2022/03/26 08:01:49;;;;;;;37.53;21.55;;;11.00;99.90;;;;;;5079100;28;20059;-64
2022/03/26 08:04:15;;;;;;;42.22;21.48;;;11.10;99.90;;;;;;5078323;28;20107;-63
2022/03/26 08:06:41;;;;;;;38.42;21.45;;;11.20;99.90;;;;;;5079533;28;20033;-63
2022/03/26 08:09:06;;;;;;;43.20;22.80;;;11.50;99.90;;;;;;5078911;28;20415;-63
2022/03/26 08:11:32;;;;;;;37.65;21.98;;;11.60;99.90;;;;;;5078853;28;20041;-64
2022/03/26 08:13:58;;;;;;;40.95;22.20;;;11.70;99.90;;;;;;5078689;28;20044;-62
2022/03/26 08:16:24;;;;;;;39.97;21.52;;;11.50;99.90;;;;;;5078767;28;20376;-63
2022/03/26 08:18:50;;;;;;;40.88;22.65;;;11.50;99.90;;;;;;5078538;28;20028;-63
2022/03/26 08:21:17;;;;;;;40.95;21.95;;;11.60;99.90;;;;;;5078499;28;20031;-63
2022/03/26 08:23:43;;;;;;;38.17;22.08;;;11.80;99.90;;;;;;5077850;28;20040;-63
2022/03/26 08:26:26;;;;;;;40.30;22.85;;;12.00;99.90;;;;;;5078443;28;20301;-62
2022/03/26 08:28:54;;;;;;;39.67;23.27;;;12.10;99.90;;;;;;5077754;28;20036;-63
2022/03/26 08:31:21;;;;;;;36.35;22.02;;;12.10;99.90;;;;;;5078339;28;20040;-63
2022/03/26 08:33:48;;;;;;;37.00;21.88;;;12.20;99.90;;;;;;5078272;28;20070;-63
2022/03/26 08:36:15;;;;;;;40.40;22.25;;;12.40;99.90;;;;;;5077502;28;20028;-63
2022/03/26 08:38:46;;;;;;;39.30;21.60;;;12.60;99.90;;;;;;5077249;28;20047;-62
2022/03/26 08:41:13;;;;;;;38.53;22.42;;;12.80;99.90;;;;;;5078232;28;20037;-62
2022/03/26 08:43:39;;;;;;;38.60;22.77;;;12.90;99.90;;;;;;5078025;28;20141;-62
2022/03/26 08:46:05;;;;;;;38.35;22.00;;;13.00;99.90;;;;;;5077412;28;20097;-62
2022/03/26 08:48:31;;;;;;;39.28;22.17;;;13.00;99.90;;;;;;5078020;28;20392;-64
2022/03/26 08:50:57;;;;;;;40.97;21.63;;;13.20;99.90;;;;;;5060711;28;20043;-63
2022/03/26 08:53:23;;;;;;;40.28;22.17;;;13.30;99.90;;;;;;5077836;28;20029;-62
2022/03/26 08:55:50;;;;;;;40.38;21.17;;;13.40;99.90;;;;;;5077906;28;20048;-63
2022/03/26 08:58:17;;;;;;;36.88;21.95;;;13.50;99.90;;;;;;5077002;28;20123;-64
2022/03/26 09:00:47;;;;;;;36.85;21.48;;;13.70;99.90;;;;;;5077808;28;20024;-63
2022/03/26 09:03:21;;;;;;;39.55;21.98;;;13.70;99.90;;;;;;5060372;28;20098;-62
2022/03/26 09:05:51;;;;;;;41.35;23.55;;;13.80;99.90;;;;;;5078002;28;20127;-63
2022/03/26 09:08:17;;;;;;;35.80;21.02;;;14.20;99.90;;;;;;5077154;28;20115;-63
2022/03/26 09:10:43;;;;;;;38.65;22.85;;;14.10;99.90;;;;;;5077471;28;20040;-63
2022/03/26 09:13:10;;;;;;;38.13;22.27;;;14.00;99.90;;;;;;5076917;28;20040;-63
2022/03/26 09:15:36;;;;;;;38.67;22.58;;;13.90;99.90;;;;;;5077540;28;20097;-63
2022/03/26 09:18:03;;;;;;;39.97;23.00;;;14.10;99.90;;;;;;5077831;28;20063;-64
2022/03/26 09:20:29;;;;;;;37.15;22.83;;;14.30;99.90;;;;;;5077470;28;20017;-64
2022/03/26 09:22:55;;;;;;;39.45;23.13;;;14.50;99.90;;;;;;5077556;28;20028;-63
2022/03/26 09:25:21;;;;;;;37.35;22.17;;;14.60;99.90;;;;;;5077470;28;20051;-63
2022/03/26 09:27:48;;;;;;;43.13;22.98;;;14.70;99.90;;;;;;5077313;28;20025;-62
2022/03/26 09:30:15;;;;;;;40.65;22.98;;;14.80;99.90;;;;;;5077374;28;20052;-63
2022/03/26 09:32:44;;;;;;;43.33;23.38;;;14.90;99.90;;;;;;5077208;28;20032;-62
2022/03/26 09:35:11;;;;;;;40.17;22.73;;;15.00;99.90;;;;;;5076595;28;20086;-63
2022/03/26 09:37:38;;;;;;;38.15;22.35;;;15.00;99.90;;;;;;5077294;28;20393;-63
2022/03/26 09:40:09;;;;;;;38.80;22.30;;;15.00;99.90;;;;;;5076483;28;20048;-63
2022/03/26 09:42:37;;;;;;;37.17;21.30;;;15.00;99.90;;;;;;5077257;28;20036;-62
2022/03/26 09:45:06;;;;;;;38.13;22.52;;;15.10;99.90;;;;;;5077088;28;20060;-63
2022/03/26 09:47:32;;;;;;;37.47;21.02;;;15.30;99.90;;;;;;5077053;28;20384;-62
2022/03/26 09:49:59;;;;;;;36.63;20.65;;;15.40;99.90;;;;;;5059617;28;20163;-62
2022/03/26 09:52:25;;;;;;;38.92;21.20;;;15.50;99.90;;;;;;5076847;28;20071;-63
2022/03/26 09:54:51;;;;;;;40.00;22.05;;;15.30;99.90;;;;;;5077025;28;20029;-63
2022/03/26 09:57:17;;;;;;;38.55;21.58;;;15.50;99.90;;;;;;5076934;28;20044;-64
2022/03/26 09:59:43;;;;;;;37.20;20.65;;;15.90;99.90;;;;;;5076743;28;20058;-63
2022/03/26 10:02:09;;;;;;;35.53;19.60;;;16.00;99.90;;;;;;5076252;28;20123;-64
2022/03/26 10:04:40;;;;;;;40.88;21.92;;;16.10;99.90;;;;;;5076039;28;20048;-65
2022/03/26 10:07:07;;;;;;;32.83;18.02;;;16.30;99.90;;;;;;5076150;28;20052;-63
2022/03/26 10:09:37;;;;;;;31.48;18.25;;;16.40;99.90;;;;;;5059583;28;20033;-62
2022/03/26 10:12:11;;;;;;;34.90;18.30;;;16.50;99.90;;;;;;5075807;28;20035;-61
2022/03/26 10:14:40;;;;;;;33.83;17.55;;;16.60;99.90;;;;;;5076382;28;20142;-62
2022/03/26 10:17:17;;;;;;;36.60;17.63;;;16.60;99.90;;;;;;5076760;28;20089;-63
2022/03/26 10:19:51;;;;;;;33.38;17.55;;;16.90;99.90;;;;;;5075303;28;20024;-61
2022/03/26 10:22:27;;;;;;;32.83;17.60;;;17.10;99.90;;;;;;5077251;28;20288;-62
2022/03/26 10:24:54;;;;;;;33.47;17.58;;;17.20;99.90;;;;;;5076997;28;20059;-65
2022/03/26 10:27:20;;;;;;;29.40;17.90;;;17.20;99.90;;;;;;5076695;28;20162;-63
2022/03/26 10:29:49;;;;;;;31.55;17.25;;;17.20;99.90;;;;;;5059383;28;20063;-63
2022/03/26 10:32:39;;;;;;;31.02;17.10;;;17.40;99.90;;;;;;5076538;28;20068;-63
2022/03/26 10:35:05;;;;;;;28.55;15.55;;;17.60;99.90;;;;;;5076371;28;20036;-63
2022/03/26 10:37:48;;;;;;;30.38;15.77;;;17.60;99.90;;;;;;5076692;28;20318;-63
2022/03/26 10:40:26;;;;;;;27.85;14.52;;;18.10;99.90;;;;;;5060152;28;20036;-62
2022/03/26 10:42:57;;;;;;;26.75;15.00;;;18.80;99.90;;;;;;5076784;28;20032;-63
2022/03/26 10:45:23;;;;;;;28.73;15.65;;;19.70;98.90;;;;;;5076844;28;20037;-64
2022/03/26 10:47:52;;;;;;;27.38;16.40;;;20.20;98.50;;;;;;5076934;28;20025;-63
2022/03/26 10:50:19;;;;;;;29.13;16.42;;;20.50;97.30;;;;;;5075902;28;20021;-64
2022/03/26 10:52:45;;;;;;;29.10;15.85;;;20.80;97.20;;;;;;5075633;28;20074;-63
2022/03/26 10:55:16;;;;;;;28.45;16.30;;;21.20;95.80;;;;;;5076483;28;20411;-64
2022/03/26 10:57:47;;;;;;;23.88;14.93;;;21.30;95.10;;;;;;5076884;28;20029;-63
2022/03/26 11:00:15;;;;;;;23.80;13.82;;;22.10;94.10;;;;;;5058880;28;20033;-64
2022/03/26 11:02:41;;;;;;;22.42;13.30;;;22.70;91.90;;;;;;5076458;28;20025;-61
2022/03/26 11:05:08;;;;;;;23.42;13.48;;;22.90;91.30;;;;;;5075538;28;20070;-64
2022/03/26 11:07:40;;;;;;;21.92;11.60;;;22.10;91.20;;;;;;5076054;28;20390;-63
2022/03/26 11:10:11;;;;;;;;;;;23.00;90.70;;;;;;5075935;28;20042;-65
2022/03/26 11:12:45;;;;;;;23.08;12.57;;;23.20;89.10;;;;;;5075366;28;20199;-63
2022/03/26 11:15:17;;;;;;;22.08;12.18;;;23.40;88.40;;;;;;5076260;28;20020;-63
2022/03/26 11:17:58;;;;;;;21.52;11.23;;;22.80;88.00;;;;;;5076242;28;20133;-64
2022/03/26 11:20:54;;;;;;;23.92;13.52;;;22.50;89.90;;;;;;5076203;28;20346;-63
2022/03/26 11:23:30;;;;;;;21.85;12.15;;;23.70;85.40;;;;;;5076094;28;20315;-63
2022/03/26 11:26:36;;;;;;;20.73;11.25;;;22.70;85.00;;;;;;5076338;28;20491;-63
2022/03/26 11:29:26;;;;;;;21.10;10.50;;;22.70;85.30;;;;;;5075876;28;20020;-63
2022/03/26 11:32:21;;;;;;;19.52;10.55;;;22.70;84.80;;;;;;5077154;28;20032;-63
2022/03/26 11:34:57;;;;;;;23.42;10.35;;;23.50;83.50;;;;;;5062106;28;20036;-63
2022/03/26 11:37:23;;;;;;;17.77;10.10;;;24.20;80.50;;;;;;5080006;28;20269;-63
2022/03/26 11:39:57;;;;;;;16.67;10.07;;;23.90;80.40;;;;;;5078865;28;20056;-63
2022/03/26 11:42:48;;;;;;;18.70;10.80;;;23.80;80.50;;;;;;5079949;28;20040;-63
2022/03/26 11:50:46;;;;;;;14.48;9.13;;;24.60;77.50;;;;;;5079289;28;20043;-63
2022/03/26 11:53:37;;;;;;;17.70;9.25;;;25.40;74.00;;;;;;5079116;28;20036;-63
2022/03/26 11:56:04;;;;;;;15.77;9.55;;;26.20;70.70;;;;;;5079259;28;20020;-63
2022/03/26 11:58:30;;;;;;;14.63;10.43;;;26.90;69.50;;;;;;5079428;28;20036;-63
2022/03/26 12:01:01;;;;;;;17.15;9.15;;;27.70;67.80;;;;;;5079137;28;20032;-64
2022/03/26 12:03:29;;;;;;;13.13;8.32;;;27.60;66.60;;;;;;5079397;28;20383;-63
2022/03/26 12:08:41;;;;;;;14.05;8.82;;;28.70;61.70;;;;;;5078962;28;20107;-65
2022/03/26 12:11:11;;;;;;;14.77;9.15;;;28.60;59.40;;;;;;5078930;28;20047;-64
2022/03/26 12:13:37;;;;;;;15.05;8.57;;;28.20;60.70;;;;;;5078822;28;20047;-65
2022/03/26 12:16:05;;;;;;;12.93;9.18;;;29.00;58.40;;;;;;5078193;28;20021;-63
2022/03/26 12:18:32;;;;;;;15.70;9.63;;;29.40;58.10;;;;;;5078805;28;20037;-62
2022/03/26 12:21:07;;;;;;;13.27;9.68;;;29.40;56.80;;;;;;5061241;28;20098;-63
2022/03/26 12:23:34;;;;;;;13.93;9.70;;;29.00;57.40;;;;;;5078772;28;20308;-64
2022/03/26 12:26:01;;;;;;;17.38;10.65;;;29.00;56.10;;;;;;5078010;28;20324;-63
2022/03/26 12:28:36;;;;;;;16.98;10.68;;;27.60;58.50;;;;;;5078517;28;20081;-62
2022/03/26 12:31:06;;;;;;;15.65;10.95;;;27.00;59.30;;;;;;5077636;28;20044;-62
2022/03/26 12:33:43;;;;;;;15.45;10.90;;;25.90;60.50;;;;;;5078401;28;20025;-64
2022/03/26 12:36:10;;;;;;;15.80;10.18;;;26.40;61.90;;;;;;5078506;28;20039;-63
2022/03/26 12:38:36;;;;;;;11.60;9.20;;;27.60;59.30;;;;;;5077464;28;20053;-63
2022/03/26 12:41:04;;;;;;;17.75;10.30;;;27.90;57.70;;;;;;5078287;28;20055;-62
2022/03/26 12:43:30;;;;;;;15.93;9.60;;;27.90;56.90;;;;;;5076452;28;20036;-64